createdAt,value
2022-09-06T00:00:31.669Z,101940.69
2022-09-06T00:03:01.321Z,101939.06
2022-09-06T00:05:30.923Z,101943.91
2022-09-06T00:08:00.288Z,101945.53
2022-09-06T00:10:28.998Z,101936.63
2022-09-06T00:12:57.611Z,101945.91
2022-09-06T00:15:26.068Z,101935.41
2022-09-06T00:17:55.933Z,101938.84
2022-09-06T00:20:27.172Z,101938.03
2022-09-06T00:23:00.771Z,101933.81
2022-09-06T00:25:29.937Z,101937.03
2022-09-06T00:27:58.825Z,101936.25
2022-09-06T00:30:28.732Z,101932.22
2022-09-06T00:32:59.061Z,101928.97
2022-09-06T00:35:28.795Z,101924.91
2022-09-06T00:38:00.852Z,101936.22
2022-09-06T00:40:30.748Z,101929.38
2022-09-06T00:42:59.436Z,101926.94
2022-09-06T00:45:29.732Z,101928.97
2022-09-06T00:48:01.187Z,101939.47
2022-09-06T00:50:30.952Z,101931.41
2022-09-06T00:52:59.660Z,101936.63
2022-09-06T00:55:28.498Z,101937.44
2022-09-06T00:57:57.483Z,101934.81
2022-09-06T01:00:26.095Z,101941.69
2022-09-06T01:02:55.281Z,101932.19
2022-09-06T01:05:34.537Z,101933.81
2022-09-06T01:08:12.356Z,101938.25
2022-09-06T01:10:54.797Z,101940.66
2022-09-06T01:13:34.459Z,101937.25
2022-09-06T01:16:12.679Z,101942.50
2022-09-06T01:18:56.908Z,101948.75
2022-09-06T01:21:46.683Z,101943.50
2022-09-06T01:24:35.270Z,101944.50
2022-09-06T01:27:54.081Z,101949.75
2022-09-06T01:30:22.610Z,101942.31
2022-09-06T01:32:57.949Z,101937.47
2022-09-06T01:35:31.375Z,101940.50
2022-09-06T01:38:01.540Z,101936.66
2022-09-06T01:40:30.307Z,101938.28
2022-09-06T01:43:00.147Z,101942.50
2022-09-06T01:45:41.355Z,101943.53
2022-09-06T01:48:18.401Z,101942.50
2022-09-06T01:50:59.212Z,101946.75
2022-09-06T01:53:43.898Z,101945.94
2022-09-06T01:56:21.278Z,101954.63
2022-09-06T01:59:23.720Z,101963.28
2022-09-06T02:02:05.230Z,101953.22
2022-09-06T02:04:42.053Z,101956.63
2022-09-06T02:07:17.870Z,101950.38
2022-09-06T02:09:53.465Z,101949.38
2022-09-06T02:12:24.004Z,101950.38
2022-09-06T02:14:58.432Z,101950.19
2022-09-06T02:17:31.710Z,101953.59
2022-09-06T02:20:04.477Z,101954.41
2022-09-06T02:22:37.990Z,101948.34
2022-09-06T02:25:10.610Z,101950.97
2022-09-06T02:27:39.376Z,101951.56
2022-09-06T02:30:10.480Z,101956.03
2022-09-06T02:32:43.716Z,101955.22
2022-09-06T02:35:16.496Z,101949.97
2022-09-06T02:37:45.715Z,101954.41
2022-09-06T02:40:14.395Z,101952.41
2022-09-06T02:42:43.047Z,101955.44
2022-09-06T02:45:13.003Z,101957.06
2022-09-06T02:47:41.546Z,101960.28
2022-09-06T02:50:10.275Z,101967.13
2022-09-06T02:52:38.794Z,101964.50
2022-09-06T02:55:08.717Z,101972.59
2022-09-06T02:57:37.232Z,101974.19
2022-09-06T03:00:07.506Z,101967.94
2022-09-06T03:02:37.483Z,101969.75
2022-09-06T03:05:06.662Z,101978.22
2022-09-06T03:07:34.870Z,101976.44
2022-09-06T03:10:03.343Z,101979.47
2022-09-06T03:12:32.000Z,101983.50
2022-09-06T03:15:00.487Z,101971.78
2022-09-06T03:17:28.989Z,101985.72
2022-09-06T03:19:58.821Z,101985.72
2022-09-06T03:22:27.375Z,101976.03
2022-09-06T03:24:55.924Z,101976.03
2022-09-06T03:27:24.681Z,101973.59
2022-09-06T03:29:53.181Z,101976.03
2022-09-06T03:32:21.610Z,101971.78
2022-09-06T03:34:50.074Z,101970.16
2022-09-06T03:37:20.603Z,101977.03
2022-09-06T03:39:49.135Z,101973.41
2022-09-06T03:42:17.715Z,101982.28
2022-09-06T03:44:46.188Z,101980.66
2022-09-06T03:47:18.857Z,101975.22
2022-09-06T03:49:48.402Z,101971.56
2022-09-06T03:52:17.200Z,101973.59
2022-09-06T03:54:47.114Z,101974.59
2022-09-06T03:57:15.556Z,101982.28
2022-09-06T03:59:44.037Z,101983.28
2022-09-06T04:02:12.527Z,101984.91
2022-09-06T04:04:41.174Z,101985.72
2022-09-06T04:07:09.787Z,101990.97
2022-09-06T04:09:38.230Z,101988.34
2022-09-06T04:12:08.677Z,101986.50
2022-09-06T04:14:37.179Z,101985.72
2022-09-06T04:17:05.687Z,101999.44
2022-09-06T04:19:34.544Z,101992.38
2022-09-06T04:22:03.223Z,101997.63
2022-09-06T04:24:31.647Z,102006.09
2022-09-06T04:27:00.135Z,102006.09
2022-09-06T04:29:29.982Z,101996.59
2022-09-06T04:31:58.551Z,102005.06
2022-09-06T04:34:27.196Z,101998.00
2022-09-06T04:36:55.714Z,101992.75
2022-09-06T04:39:24.364Z,101988.31
2022-09-06T04:41:52.820Z,101995.38
2022-09-06T04:44:21.342Z,101998.81
2022-09-06T04:46:51.325Z,101995.59
2022-09-06T04:49:19.810Z,101995.38
2022-09-06T04:51:48.221Z,101984.88
2022-09-06T04:54:16.770Z,101995.19
2022-09-06T04:56:45.391Z,101992.56
2022-09-06T04:59:13.814Z,101993.56
2022-09-06T05:01:42.480Z,101984.88
2022-09-06T05:04:12.378Z,101993.56
2022-09-06T05:06:41.939Z,101996.19
2022-09-06T05:09:10.994Z,101999.41
2022-09-06T05:11:39.475Z,101995.19
2022-09-06T05:14:08.049Z,101989.94
2022-09-06T05:16:36.550Z,101998.81
2022-09-06T05:19:05.067Z,101996.19
2022-09-06T05:21:34.962Z,102000.63
2022-09-06T05:24:03.887Z,101997.41
2022-09-06T05:26:32.375Z,101999.22
2022-09-06T05:29:00.846Z,101997.63
2022-09-06T05:31:30.847Z,101995.59
2022-09-06T05:33:59.944Z,101990.34
2022-09-06T05:36:28.609Z,101993.78
2022-09-06T05:38:59.525Z,101986.31
2022-09-06T05:41:28.113Z,101989.56
2022-09-06T05:43:56.795Z,101988.53
2022-09-06T05:46:25.326Z,101993.59
2022-09-06T05:48:54.808Z,101989.94
2022-09-06T05:51:23.473Z,101992.38
2022-09-06T05:53:51.947Z,102002.88
2022-09-06T05:56:22.669Z,102010.75
2022-09-06T05:58:51.243Z,102000.03
2022-09-06T06:01:21.872Z,102012.16
2022-09-06T06:03:55.379Z,101998.22
2022-09-06T06:06:25.275Z,102006.91
2022-09-06T06:08:53.886Z,102007.69
2022-09-06T06:11:24.254Z,101998.22
2022-09-06T06:13:53.149Z,101999.03
2022-09-06T06:16:23.563Z,102005.88
2022-09-06T06:18:52.863Z,101996.78
2022-09-06T06:21:23.071Z,102002.03
2022-09-06T06:23:53.446Z,102004.47
2022-09-06T06:26:24.399Z,102004.47
2022-09-06T06:28:53.530Z,101997.59
2022-09-06T06:31:22.795Z,101999.22
2022-09-06T06:33:51.771Z,102007.50
2022-09-06T06:36:22.822Z,102002.06
2022-09-06T06:38:53.379Z,102007.91
2022-09-06T06:41:25.436Z,102011.94
2022-09-06T06:43:54.799Z,102005.69
2022-09-06T06:46:25.066Z,102016.78
2022-09-06T06:48:55.551Z,102013.16
2022-09-06T06:51:26.306Z,102012.13
2022-09-06T06:53:56.838Z,102013.53
2022-09-06T06:56:28.955Z,102019.59
2022-09-06T06:58:59.183Z,102015.34
2022-09-06T07:01:29.375Z,102016.56
2022-09-06T07:03:58.228Z,102012.13
2022-09-06T07:09:18.512Z,102020.22
2022-09-06T07:11:49.660Z,102027.88
2022-09-06T07:14:18.607Z,102023.63
2022-09-06T07:16:47.656Z,102019.19
2022-09-06T07:22:05.400Z,102027.50
2022-09-06T07:24:35.015Z,102026.28
2022-09-06T07:29:53.496Z,102029.50
2022-09-06T07:32:22.035Z,102028.50
2022-09-06T07:34:50.508Z,102021.44
2022-09-06T07:37:19.177Z,102022.22
2022-09-06T07:39:47.743Z,102023.84
2022-09-06T07:42:17.681Z,102014.16
2022-09-06T07:44:46.116Z,102020.22
2022-09-06T07:53:11.277Z,102011.94
2022-09-06T07:55:41.686Z,102011.34
2022-09-06T07:58:11.572Z,102014.56
2022-09-06T08:00:41.373Z,102013.34
2022-09-06T08:03:10.396Z,102022.84
2022-09-06T08:11:16.051Z,102008.09
2022-09-06T08:13:47.760Z,102008.47
2022-09-06T08:16:17.141Z,102006.47
2022-09-06T08:18:45.695Z,102002.00
2022-09-06T08:21:15.769Z,102002.00
2022-09-06T08:23:48.698Z,102001.81
2022-09-06T08:26:18.128Z,102001.81
2022-09-06T08:28:48.530Z,101999.19
2022-09-06T08:31:19.887Z,101998.38
2022-09-06T08:33:48.423Z,101992.53
2022-09-06T08:36:17.258Z,101991.94
2022-09-06T08:38:46.883Z,101990.31
2022-09-06T08:41:25.679Z,101987.47
2022-09-06T08:46:55.807Z,101974.34
2022-09-06T08:49:26.898Z,101976.97
2022-09-06T08:52:17.721Z,101979.81
2022-09-06T08:54:55.299Z,101989.13
2022-09-06T08:57:40.371Z,101974.59
2022-09-06T09:00:13.714Z,101978.44
2022-09-06T09:02:46.202Z,101971.78
2022-09-06T09:05:23.763Z,101970.97
2022-09-06T09:08:02.612Z,101975.59
2022-09-06T09:10:33.563Z,101972.38
2022-09-06T09:13:06.057Z,101962.69
2022-09-06T09:15:40.159Z,101962.91
2022-09-06T09:18:09.563Z,101962.91
2022-09-06T09:20:39.431Z,101956.84
2022-09-06T09:23:08.007Z,101955.22
2022-09-06T09:25:39.835Z,101960.69
2022-09-06T09:28:15.708Z,101969.56
2022-09-06T09:30:51.235Z,101969.78
2022-09-06T09:33:24.653Z,101960.28
2022-09-06T09:35:53.709Z,101963.13
2022-09-06T09:38:27.071Z,101971.19
2022-09-06T09:40:58.347Z,101965.13
2022-09-06T09:43:31.120Z,101966.75
2022-09-06T09:46:17.476Z,101973.00
2022-09-06T09:49:02.071Z,101976.03
2022-09-06T09:51:33.015Z,101966.56
2022-09-06T09:54:03.894Z,101978.84
2022-09-06T09:56:48.871Z,101969.31
2022-09-06T09:59:21.871Z,101974.78
2022-09-06T10:01:55.440Z,101967.53
2022-09-06T10:07:11.295Z,101974.97
2022-09-06T10:09:42.358Z,101978.63
2022-09-06T10:12:18.251Z,101977.81
2022-09-06T10:14:48.978Z,101966.72
2022-09-06T10:17:30.397Z,101977.19
2022-09-06T10:20:01.943Z,101971.34
2022-09-06T10:22:32.606Z,101969.53
2022-09-06T10:25:14.198Z,101966.72
2022-09-06T10:28:10.373Z,101965.09
2022-09-06T10:30:44.863Z,101968.94
2022-09-06T10:33:26.695Z,101962.69
2022-09-06T10:35:58.792Z,101961.28
2022-09-06T10:38:54.838Z,101954.22
2022-09-06T10:41:35.922Z,101948.97
2022-09-06T10:44:18.445Z,101956.41
2022-09-06T10:46:47.252Z,101946.13
2022-09-06T10:49:20.484Z,101947.16
2022-09-06T10:51:53.591Z,101948.75
2022-09-06T10:54:24.211Z,101941.91
2022-09-06T10:56:57.263Z,101942.72
2022-09-06T10:59:38.422Z,101936.44
2022-09-06T11:02:19.694Z,101946.13
2022-09-06T11:10:34.711Z,101934.03
2022-09-06T11:13:06.711Z,101932.22
2022-09-06T11:15:43.942Z,101934.63
2022-09-06T11:18:19.773Z,101933.81
2022-09-06T11:21:03.198Z,101929.78
2022-09-06T11:23:49.322Z,101930.19
2022-09-06T11:26:44.555Z,101927.78
2022-09-06T11:29:21.242Z,101930.59
2022-09-06T11:34:55.046Z,101928.78
2022-09-06T11:37:28.879Z,101921.72
2022-09-06T11:40:31.874Z,101922.53
2022-09-06T11:43:15.833Z,101920.53
2022-09-06T11:45:48.843Z,101922.13
2022-09-06T11:48:49.863Z,101918.50
2022-09-06T11:51:35.663Z,101911.22
2022-09-06T11:54:22.965Z,101907.78
2022-09-06T11:56:58.529Z,101913.25
2022-09-06T11:59:37.599Z,101906.81
2022-09-06T12:02:07.145Z,101903.94
2022-09-06T12:05:09.485Z,101902.13
2022-09-06T12:07:39.202Z,101895.06
2022-09-06T12:10:40.915Z,101890.28
2022-09-06T12:13:41.709Z,101895.31
2022-09-06T12:16:12.225Z,101883.22
2022-09-06T12:19:00.552Z,101879.16
2022-09-06T12:21:46.190Z,101883.41
2022-09-06T12:24:53.016Z,101876.13
2022-09-06T12:27:22.762Z,101870.88
2022-09-06T12:29:59.513Z,101875.72
2022-09-06T12:32:36.598Z,101878.34
2022-09-06T12:38:02.783Z,101868.63
2022-09-06T12:40:35.108Z,101872.66
2022-09-06T12:43:05.839Z,101871.66
2022-09-06T12:45:36.121Z,101868.03
2022-09-06T12:48:07.037Z,101866.19
2022-09-06T12:50:36.010Z,101865.00
2022-09-06T12:53:20.421Z,101859.97
2022-09-06T12:56:03.429Z,101864.41
2022-09-06T12:58:32.202Z,101861.38
2022-09-06T13:01:10.854Z,101860.16
2022-09-06T13:03:43.747Z,101859.34
2022-09-06T13:06:21.267Z,101857.53
2022-09-06T13:08:57.168Z,101852.28
2022-09-06T13:11:29.640Z,101856.28
2022-09-06T13:13:58.388Z,101851.66
2022-09-06T13:16:33.530Z,101839.31
2022-09-06T13:19:13.876Z,101844.56
2022-09-06T13:21:45.339Z,101848.22
2022-09-06T13:24:21.436Z,101852.44
2022-09-06T13:26:50.757Z,101851.44
2022-09-06T13:29:30.936Z,101852.25
2022-09-06T13:32:03.551Z,101846.19
2022-09-06T13:34:34.199Z,101848.81
2022-09-06T13:37:06.211Z,101851.44
2022-09-06T13:39:37.625Z,101852.25
2022-09-06T13:42:08.558Z,101851.44
2022-09-06T13:44:38.854Z,101845.38
2022-09-06T13:47:08.691Z,101845.59
2022-09-06T13:49:37.198Z,101847.63
2022-09-06T13:52:06.124Z,101846.59
2022-09-06T13:54:35.019Z,101836.09
2022-09-06T13:57:04.121Z,101838.72
2022-09-06T13:59:32.767Z,101837.50
2022-09-06T14:02:03.607Z,101839.31
2022-09-06T14:04:33.590Z,101831.25
2022-09-06T14:07:01.987Z,101826.00
2022-09-06T14:09:31.186Z,101827.81
2022-09-06T14:12:34.725Z,101826.81
2022-09-06T14:15:03.440Z,101824.38
2022-09-06T14:17:32.970Z,101824.19
2022-09-06T14:20:03.035Z,101828.41
2022-09-06T14:22:31.629Z,101815.09
2022-09-06T14:25:00.638Z,101815.88
2022-09-06T14:27:29.190Z,101814.88
2022-09-06T14:29:57.714Z,101808.59
2022-09-06T14:32:26.906Z,101812.03
2022-09-06T14:34:55.152Z,101806.81
2022-09-06T14:37:25.022Z,101817.34
2022-09-06T14:40:27.547Z,101810.69
2022-09-06T14:42:58.214Z,101815.13
2022-09-06T14:45:26.950Z,101809.66
2022-09-06T14:47:55.516Z,101811.47
2022-09-06T14:50:24.131Z,101804.63
2022-09-06T14:52:54.114Z,101808.69
2022-09-06T14:55:22.664Z,101803.44
2022-09-06T14:57:51.260Z,101802.41
2022-09-06T15:00:20.091Z,101804.22
2022-09-06T15:02:48.579Z,101810.28
2022-09-06T15:05:17.367Z,101804.03
2022-09-06T15:07:45.932Z,101802.19
2022-09-06T15:10:16.076Z,101797.75
2022-09-06T15:12:44.557Z,101796.16
2022-09-06T15:15:13.140Z,101801.19
2022-09-06T15:17:42.198Z,101800.56
2022-09-06T15:20:11.776Z,101793.28
2022-09-06T15:22:40.240Z,101794.47
2022-09-06T15:25:10.929Z,101801.31
2022-09-06T15:27:40.862Z,101792.66
2022-09-06T15:30:10.567Z,101792.66
2022-09-06T15:32:39.124Z,101792.66
2022-09-06T15:35:08.800Z,101795.88
2022-09-06T15:37:37.281Z,101792.44
2022-09-06T15:40:06.457Z,101794.47
2022-09-06T15:42:34.860Z,101793.69
2022-09-06T15:45:04.937Z,101793.09
2022-09-06T15:47:35.429Z,101798.53
2022-09-06T15:50:04.098Z,101795.69
2022-09-06T15:52:32.961Z,101803.34
2022-09-06T15:55:18.828Z,101794.47
2022-09-06T15:57:47.699Z,101797.31
2022-09-06T16:00:22.096Z,101787.63
2022-09-06T16:02:51.392Z,101791.03
2022-09-06T16:08:08.761Z,101799.13
2022-09-06T16:10:42.475Z,101788.41
2022-09-06T16:13:11.023Z,101792.88
2022-09-06T16:15:41.073Z,101803.34
2022-09-06T16:18:09.745Z,101801.53
2022-09-06T16:20:39.117Z,101797.09
2022-09-06T16:23:07.693Z,101801.53
2022-09-06T16:25:36.281Z,101795.50
2022-09-06T16:28:04.902Z,101807.59
2022-09-06T16:30:33.557Z,101806.59
2022-09-06T16:33:03.561Z,101801.75
2022-09-06T16:35:32.136Z,101804.16
2022-09-06T16:38:02.346Z,101814.66
2022-09-06T16:40:31.017Z,101812.03
2022-09-06T16:42:59.797Z,101808.41
2022-09-06T16:45:28.385Z,101813.66
2022-09-06T16:47:57.038Z,101821.53
2022-09-06T16:50:27.298Z,101815.47
2022-09-06T16:52:55.934Z,101832.03
2022-09-06T16:55:24.582Z,101826.78
2022-09-06T16:57:53.290Z,101838.28
2022-09-06T17:00:21.995Z,101836.47
2022-09-06T17:02:50.591Z,101838.06
2022-09-06T17:05:19.288Z,101840.28
2022-09-06T17:07:49.257Z,101842.69
2022-09-06T17:10:18.705Z,101848.16
2022-09-06T17:12:47.279Z,101855.00
2022-09-06T17:15:15.947Z,101858.06
2022-09-06T17:17:43.618Z,101875.22
2022-09-06T17:20:12.572Z,101876.63
2022-09-06T17:22:41.525Z,101876.41
2022-09-06T17:25:12.627Z,101879.03
2022-09-06T17:27:41.639Z,101890.13
2022-09-06T17:30:11.577Z,101892.16
2022-09-06T17:32:41.365Z,101899.44
2022-09-06T17:35:10.946Z,101892.38
2022-09-06T17:37:39.477Z,101897.63
2022-09-06T17:40:09.638Z,101902.25
2022-09-06T17:45:09.841Z,101911.34
2022-09-06T17:47:38.770Z,101911.16
2022-09-06T17:50:07.959Z,101920.03
2022-09-06T17:52:39.366Z,101922.88
2022-09-06T17:55:08.875Z,101923.09
2022-09-06T17:57:38.656Z,101933.38
2022-09-06T18:00:11.355Z,101938.03
2022-09-06T18:02:40.070Z,101935.59
2022-09-06T18:05:11.316Z,101940.06
2022-09-06T18:07:40.200Z,101939.03
2022-09-06T18:10:10.064Z,101943.47
2022-09-06T18:12:39.266Z,101949.75
2022-09-06T18:15:10.220Z,101946.31
2022-09-06T18:17:39.161Z,101950.56
2022-09-06T18:20:09.421Z,101953.38
2022-09-06T18:22:39.803Z,101955.19
2022-09-06T18:25:09.375Z,101951.16
2022-09-06T18:27:39.213Z,101953.59
2022-09-06T18:30:14.659Z,101951.97
2022-09-06T18:32:44.574Z,101949.56
2022-09-06T18:35:13.733Z,101954.59
2022-09-06T18:37:42.515Z,101966.91
2022-09-06T18:40:11.922Z,101960.06
2022-09-06T18:42:45.230Z,101956.81
2022-09-06T18:45:15.378Z,101948.16
2022-09-06T18:47:44.970Z,101957.03
2022-09-06T18:50:13.595Z,101950.97
2022-09-06T18:52:42.456Z,101958.84
2022-09-06T18:55:11.403Z,101953.81
2022-09-06T18:57:40.029Z,101959.06
2022-09-06T19:00:10.926Z,101965.31
2022-09-06T19:02:41.148Z,101962.91
2022-09-06T19:05:10.241Z,101967.34
2022-09-06T19:07:38.568Z,101956.84
2022-09-06T19:10:07.695Z,101959.88
2022-09-06T19:12:36.065Z,101963.09
2022-09-06T19:15:04.737Z,101972.97
2022-09-06T19:17:33.349Z,101959.66
2022-09-06T19:20:03.693Z,101970.59
2022-09-06T19:22:33.341Z,101960.69
2022-09-06T19:25:02.113Z,101965.75
2022-09-06T19:27:31.081Z,101968.34
2022-09-06T19:30:01.787Z,101966.91
2022-09-06T19:32:32.052Z,101958.69
2022-09-06T19:35:01.529Z,101960.09
2022-09-06T19:37:32.773Z,101967.75
2022-09-06T19:40:01.764Z,101976.44
2022-09-06T19:42:31.230Z,101973.63
2022-09-06T19:44:59.848Z,101980.69
2022-09-06T19:47:28.427Z,101979.88
2022-09-06T19:49:57.147Z,101980.69
2022-09-06T19:52:25.905Z,101974.63
2022-09-06T19:54:55.947Z,101979.88
2022-09-06T19:57:24.825Z,101982.50
2022-09-06T19:59:53.310Z,101987.13
2022-09-06T20:02:22.817Z,101993.19
2022-09-06T20:04:51.478Z,101999.25
2022-09-06T20:07:19.962Z,102002.69
2022-09-06T20:09:52.414Z,102012.38
2022-09-06T20:12:22.698Z,102005.50
2022-09-06T20:14:51.385Z,102002.69
2022-09-06T20:17:33.246Z,101999.44
2022-09-06T20:20:03.049Z,102002.88
2022-09-06T20:22:31.518Z,102001.22
2022-09-06T20:25:00.195Z,102006.06
2022-09-06T20:27:30.325Z,102001.63
2022-09-06T20:29:59.349Z,102004.03
2022-09-06T20:32:28.245Z,102000.41
2022-09-06T20:34:57.049Z,102002.22
2022-09-06T20:37:25.724Z,102005.66
2022-09-06T20:39:55.106Z,102002.22
2022-09-06T20:42:23.738Z,102004.84
2022-09-06T20:44:53.984Z,102007.25
2022-09-06T20:47:22.599Z,102009.88
2022-09-06T20:49:51.397Z,102002.03
2022-09-06T20:52:19.967Z,102007.25
2022-09-06T20:54:48.604Z,102000.41
2022-09-06T20:57:17.226Z,102003.22
2022-09-06T20:59:45.767Z,102015.53
2022-09-06T21:02:15.918Z,102015.53
2022-09-06T21:04:44.575Z,102022.41
2022-09-06T21:07:13.128Z,102023.41
2022-09-06T21:09:41.784Z,102027.03
2022-09-06T21:12:10.365Z,102030.69
2022-09-06T21:14:38.991Z,102031.47
2022-09-06T21:17:07.527Z,102029.06
2022-09-06T21:19:39.481Z,102023.81
2022-09-06T21:22:08.135Z,102034.31
2022-09-06T21:24:36.942Z,102029.88
2022-09-06T21:27:06.889Z,102034.31
2022-09-06T21:29:35.405Z,102032.50
2022-09-06T21:32:04.438Z,102027.44
2022-09-06T21:34:33.016Z,102031.88
2022-09-06T21:37:02.962Z,102034.72
2022-09-06T21:39:31.756Z,102037.94
2022-09-06T21:42:00.286Z,102037.13
2022-09-06T21:44:28.835Z,102034.72
2022-09-06T21:46:57.587Z,102036.53
2022-09-06T21:49:26.213Z,102043.59
2022-09-06T21:51:54.752Z,102041.78
2022-09-06T21:54:24.818Z,102039.34
2022-09-06T21:56:53.452Z,102036.72
2022-09-06T21:59:22.094Z,102037.53
2022-09-06T22:01:50.772Z,102029.88
2022-09-06T22:04:19.611Z,102034.09
2022-09-06T22:06:48.175Z,102036.94
2022-09-06T22:09:16.719Z,102031.69
2022-09-06T22:11:46.707Z,102041.16
2022-09-06T22:14:16.002Z,102042.19
2022-09-06T22:16:45.060Z,102042.19
2022-09-06T22:19:13.892Z,102036.94
2022-09-06T22:21:42.431Z,102038.94
2022-09-06T22:24:12.770Z,102039.97
2022-09-06T22:26:42.459Z,102052.25
2022-09-06T22:29:15.521Z,102046.00
2022-09-06T22:31:44.664Z,102052.88
2022-09-06T22:34:13.352Z,102044.19
2022-09-06T22:36:42.793Z,102044.78
2022-09-06T22:39:11.330Z,102042.56
2022-09-06T22:41:40.008Z,102043.59
2022-09-06T22:44:08.751Z,102042.78
2022-09-06T22:46:39.204Z,102048.84
2022-09-06T22:49:08.348Z,102046.41
2022-09-06T22:51:36.979Z,102052.47
2022-09-06T22:54:06.273Z,102048.03
2022-09-06T22:56:35.817Z,102055.88
2022-09-06T22:59:04.838Z,102042.78
2022-09-06T23:01:38.916Z,102054.06
2022-09-06T23:04:10.126Z,102050.44
2022-09-06T23:06:38.961Z,102051.44
2022-09-06T23:09:07.855Z,102048.84
2022-09-06T23:11:36.434Z,102043.78
2022-09-06T23:14:05.258Z,102046.41
2022-09-06T23:16:33.985Z,102041.97
2022-09-06T23:19:02.494Z,102042.97
2022-09-06T23:21:33.032Z,102034.31
2022-09-06T23:24:01.661Z,102039.94
2022-09-06T23:26:31.715Z,102031.47
2022-09-06T23:29:01.345Z,102035.50
2022-09-06T23:31:32.693Z,102033.50
2022-09-06T23:34:02.762Z,102029.88
2022-09-06T23:36:32.850Z,102031.47
2022-09-06T23:39:02.733Z,102022.81
2022-09-06T23:41:31.838Z,102023.00
2022-09-06T23:44:00.726Z,102028.25
2022-09-06T23:46:29.343Z,102022.19
2022-09-06T23:48:58.192Z,102021.38
2022-09-06T23:51:26.775Z,102023.22
2022-09-06T23:53:56.763Z,102024.81
2022-09-06T23:56:25.305Z,102027.44
2022-09-06T23:58:54.136Z,102021.59
